Cerro Gordo, IL (61818)

10:57 PM CDT on April 20, 2015 (GMT -0500)
Decatur | | Change Station
CLOSE
Current Station
Airport
Location: Decatur,
Elevation: 682 ft
Nearby Weather Stations

Elev 682 ft 39.83 °N, 88.87 °W | Updated 1 hour ago

Partly Cloudy
Partly Cloudy
44 °F
Feels Like 40 °F
N
7
Wind Variable Wind from SW

Today
High -- | Low -- °F
--% Chance of Precip.
Yesterday
High -- | Low -- °F
Precip. -- in
6:10 AM 7:38 PM
Waxing Crescent, 8% visible
Pressure 29.78 in
Visibility 10.0 miles
Clouds Few 10000 ft
Windchill 40 °F
Dew Point 35 °F
Humidity 71%
Rainfall 0.04 in
Snow Depth Not available.
UV 0 out of 12
Pollen 5.60 out of 12
Air Quality Not available.
Flu Activity Regional
METAR KDEC 210254Z 23006KT 10SM FEW100 07/02 A2977 RMK AO2 SLP082 T00670017 53013

More Conditions Fewer Conditions

Pressure 29.78 in
Visibility 10.0 miles
Clouds Few 10000 ft
Windchill 40 °F
Dew Point 35 °F
Humidity 71%
Rainfall 0.04 in
Snow Depth Not available.
UV 0 out of 12
Pollen 5.60 out of 12
Air Quality Not available.
Flu Activity Regional
METAR KDEC 210254Z 23006KT 10SM FEW100 07/02 A2977 RMK AO2 SLP082 T00670017 53013

More Conditions Fewer Conditions

10-Day Weather Forecast

Almanac

Astronomy

Apr. 20, 2015 Rise Set
Actual Time
Civil Twilight
Nautical Twilight
Astronomical Twilight
Moon
Length of Visible Light
Length of Day
Tomorrow will be .
, % of the Moon is Illuminated

Today's Extremes

State Highs State Lows

Community

WunderPhotos

Upload Photos

1,815,296 photos uploaded!

WunderBlogs® & News

Nearby

Air Quality

  Air Quality AQ Index Pollutant
Not available.

Snow Depth

Station Depth Elevation

Earthquake Activity

City Distance Mag. Time & Date
Minimum magnitude displayed is 2.5.

Coastal Water Temperatures

Place Temperature

Stations

Nearby Weather Stations

Station Location Temp. Windchill Dew Point Humidity Wind Precip. Elev Updated Type